createdAt,value
2023-02-13T00:02:11.051Z,11.40
2023-02-13T00:05:38.750Z,11.20
2023-02-13T00:09:07.125Z,11.60
2023-02-13T00:12:36.059Z,10.20
2023-02-13T00:16:05.213Z,10.50
2023-02-13T00:19:32.320Z,10.30
2023-02-13T00:22:59.678Z,10.30
2023-02-13T00:26:26.570Z,10.10
2023-02-13T00:29:53.586Z,10.20
2023-02-13T00:33:20.931Z,10.30
2023-02-13T00:36:47.753Z,10.30
2023-02-13T00:40:16.761Z,9.30
2023-02-13T00:43:43.534Z,10.10
2023-02-13T00:47:15.297Z,9.90
2023-02-13T00:50:42.800Z,10.20
2023-02-13T00:54:11.248Z,10.60
2023-02-13T00:57:38.006Z,10.00
2023-02-13T01:01:04.945Z,10.60
2023-02-13T01:04:32.728Z,10.80
2023-02-13T01:07:59.839Z,10.60
2023-02-13T01:11:26.474Z,10.40
2023-02-13T01:14:53.685Z,10.50
2023-02-13T01:18:22.673Z,10.70
2023-02-13T01:21:49.425Z,8.90
2023-02-13T01:25:18.942Z,9.80
2023-02-13T01:28:46.150Z,8.80
2023-02-13T01:32:13.253Z,8.90
2023-02-13T01:35:42.145Z,8.80
2023-02-13T01:39:13.170Z,8.20
2023-02-13T01:42:40.516Z,8.00
2023-02-13T01:46:07.820Z,7.60
2023-02-13T01:49:35.444Z,8.20
2023-02-13T01:53:08.373Z,7.30
2023-02-13T01:56:39.376Z,8.00
2023-02-13T02:00:13.598Z,7.10
2023-02-13T02:03:51.524Z,7.60
2023-02-13T02:07:25.216Z,6.80
2023-02-13T02:10:52.282Z,5.60
2023-02-13T02:14:19.182Z,6.80
2023-02-13T02:17:46.698Z,6.10
2023-02-13T02:21:52.840Z,6.50
2023-02-13T02:25:37.521Z,6.00
2023-02-13T02:29:28.035Z,5.50
2023-02-13T02:33:10.256Z,5.50
2023-02-13T02:37:00.540Z,4.20
2023-02-13T02:40:37.793Z,4.70
2023-02-13T02:44:17.032Z,3.40
2023-02-13T02:48:11.755Z,4.10
2023-02-13T02:51:46.907Z,3.80
2023-02-13T02:55:29.471Z,3.50
2023-02-13T02:59:20.422Z,3.80
2023-02-13T03:03:05.166Z,3.40
2023-02-13T03:06:38.384Z,3.40
2023-02-13T03:13:51.954Z,3.10
2023-02-13T03:17:37.876Z,3.60
2023-02-13T03:21:35.619Z,3.30
2023-02-13T03:25:09.242Z,3.30
2023-02-13T03:29:00.817Z,3.10
2023-02-13T03:32:37.650Z,2.70
2023-02-13T03:36:32.813Z,3.10
2023-02-13T03:40:08.793Z,3.40
2023-02-13T03:43:41.990Z,2.50
2023-02-13T03:47:11.585Z,2.80
2023-02-13T03:50:44.648Z,2.90
2023-02-13T03:54:18.880Z,2.90
2023-02-13T03:58:06.492Z,2.90
2023-02-13T04:01:36.405Z,3.30
2023-02-13T04:05:11.000Z,4.00
2023-02-13T04:08:38.369Z,3.70
2023-02-13T04:12:15.829Z,4.60
2023-02-13T04:15:48.635Z,4.30
2023-02-13T04:19:17.428Z,5.50
2023-02-13T04:22:47.684Z,5.50
2023-02-13T04:26:20.989Z,6.20
2023-02-13T04:29:47.886Z,4.90
2023-02-13T04:33:14.211Z,5.20
2023-02-13T04:36:40.968Z,4.20
2023-02-13T04:40:09.104Z,4.80
2023-02-13T04:43:36.153Z,4.80
2023-02-13T04:47:03.092Z,4.70
2023-02-13T04:50:29.785Z,4.90
2023-02-13T04:53:56.389Z,4.60
2023-02-13T04:57:23.408Z,5.40
2023-02-13T05:00:49.949Z,5.20
2023-02-13T05:04:17.837Z,5.20
2023-02-13T05:07:45.620Z,6.00
2023-02-13T05:11:12.443Z,5.20
2023-02-13T05:14:39.101Z,5.60
2023-02-13T05:18:06.637Z,5.60
2023-02-13T05:21:50.664Z,6.00
2023-02-13T05:25:17.644Z,6.00
2023-02-13T05:29:01.840Z,6.20
2023-02-13T05:32:29.044Z,5.80
2023-02-13T05:35:55.941Z,4.90
2023-02-13T05:39:23.206Z,5.70
2023-02-13T05:42:50.022Z,5.50
2023-02-13T05:46:17.041Z,7.00
2023-02-13T05:49:44.009Z,6.20
2023-02-13T05:53:10.794Z,8.00
2023-02-13T05:56:38.071Z,8.00
2023-02-13T06:00:06.697Z,7.10
2023-02-13T06:03:35.082Z,6.30
2023-02-13T06:07:02.614Z,7.40
2023-02-13T06:10:29.133Z,7.80
2023-02-13T06:13:55.468Z,8.00
2023-02-13T06:17:22.659Z,6.90
2023-02-13T06:20:50.024Z,7.30
2023-02-13T06:24:17.165Z,8.90
2023-02-13T06:27:43.756Z,9.30
2023-02-13T06:31:11.450Z,8.90
2023-02-13T06:34:38.540Z,8.10
2023-02-13T06:38:06.008Z,8.70
2023-02-13T06:41:33.857Z,6.80
2023-02-13T06:45:01.244Z,6.50
2023-02-13T06:48:28.801Z,5.80
2023-02-13T06:51:55.934Z,7.30
2023-02-13T06:55:23.014Z,7.00
2023-02-13T06:58:49.534Z,6.60
2023-02-13T07:02:16.821Z,6.80
2023-02-13T07:05:45.153Z,7.80
2023-02-13T07:09:13.799Z,7.60
2023-02-13T07:12:40.899Z,6.60
2023-02-13T07:16:08.419Z,7.30
2023-02-13T07:19:36.021Z,5.80
2023-02-13T07:23:03.545Z,7.70
2023-02-13T07:26:30.042Z,6.70
2023-02-13T07:29:57.996Z,6.10
2023-02-13T07:33:25.688Z,8.20
2023-02-13T07:36:52.520Z,8.60
2023-02-13T07:40:19.570Z,7.70
2023-02-13T07:43:46.957Z,5.60
2023-02-13T07:47:14.161Z,5.00
2023-02-13T07:50:40.664Z,4.20
2023-02-13T07:54:07.530Z,5.00
2023-02-13T07:57:34.907Z,4.50
2023-02-13T08:01:06.820Z,3.60
2023-02-13T08:04:34.037Z,3.80
2023-02-13T08:08:01.399Z,3.80
2023-02-13T08:11:54.604Z,5.60
2023-02-13T08:15:25.513Z,4.90
2023-02-13T08:18:52.483Z,4.90
2023-02-13T08:22:19.351Z,4.90
2023-02-13T08:25:48.072Z,5.30
2023-02-13T08:29:15.225Z,4.70
2023-02-13T08:32:53.803Z,5.50
2023-02-13T08:36:21.868Z,5.50
2023-02-13T08:39:49.396Z,4.90
2023-02-13T08:43:16.568Z,4.30
2023-02-13T08:46:43.055Z,4.40
2023-02-13T08:50:11.605Z,4.50
2023-02-13T08:53:39.009Z,4.60
2023-02-13T08:57:05.856Z,4.60
2023-02-13T09:00:32.722Z,5.20
2023-02-13T09:03:59.823Z,5.50
2023-02-13T09:07:27.133Z,4.80
2023-02-13T09:10:59.866Z,5.20
2023-02-13T09:14:26.659Z,4.40
2023-02-13T09:17:53.931Z,5.80
2023-02-13T09:21:22.984Z,5.30
2023-02-13T09:24:49.825Z,5.40
2023-02-13T09:28:16.908Z,3.90
2023-02-13T09:31:44.959Z,3.90
2023-02-13T09:35:15.296Z,4.00
2023-02-13T09:38:44.373Z,4.30
2023-02-13T09:42:21.120Z,4.70
2023-02-13T09:45:51.725Z,3.80
2023-02-13T09:49:22.667Z,4.60
2023-02-13T09:52:55.208Z,4.30
2023-02-13T09:56:39.270Z,5.10
2023-02-13T10:00:14.795Z,5.80
2023-02-13T10:03:51.668Z,5.10
2023-02-13T10:07:28.321Z,4.20
2023-02-13T10:11:02.754Z,4.40
2023-02-13T10:14:37.179Z,3.60
2023-02-13T10:18:12.534Z,3.80
2023-02-13T10:21:49.343Z,3.40
2023-02-13T10:25:27.124Z,3.50
2023-02-13T10:29:17.515Z,4.30
2023-02-13T10:32:52.324Z,3.40
2023-02-13T10:36:24.529Z,5.40
2023-02-13T10:39:53.490Z,3.20
2023-02-13T10:43:28.891Z,3.40
2023-02-13T10:47:06.727Z,4.20
2023-02-13T10:50:44.154Z,3.70
2023-02-13T10:54:24.021Z,3.30
2023-02-13T10:58:09.615Z,4.30
2023-02-13T11:01:44.437Z,4.60
2023-02-13T11:05:19.940Z,4.20
2023-02-13T11:08:49.470Z,4.20
2023-02-13T11:12:29.755Z,3.90
2023-02-13T11:16:10.660Z,3.10
2023-02-13T11:19:41.798Z,3.40
2023-02-13T11:23:29.694Z,3.00
2023-02-13T11:27:00.015Z,3.30
2023-02-13T11:30:38.657Z,3.40
2023-02-13T11:34:26.297Z,3.30
2023-02-13T11:38:12.352Z,3.90
2023-02-13T11:41:44.504Z,3.10
2023-02-13T11:45:26.170Z,2.60
2023-02-13T11:49:05.809Z,3.10
2023-02-13T11:52:35.745Z,2.70
2023-02-13T11:56:09.848Z,3.00
2023-02-13T11:59:45.288Z,2.80
2023-02-13T12:03:31.624Z,3.20
2023-02-13T12:07:06.342Z,3.00
2023-02-13T12:10:35.648Z,3.80
2023-02-13T12:14:06.178Z,4.90
2023-02-13T12:17:44.279Z,3.50
2023-02-13T12:21:31.683Z,3.60
2023-02-13T12:25:22.165Z,3.80
2023-02-13T12:29:12.660Z,2.90
2023-02-13T12:32:59.626Z,3.80
2023-02-13T12:36:39.279Z,3.60
2023-02-13T12:40:29.635Z,3.10
2023-02-13T12:44:22.745Z,3.30
2023-02-13T12:48:08.534Z,3.70
2023-02-13T12:51:50.696Z,3.70
2023-02-13T12:55:38.461Z,3.60
2023-02-13T12:59:11.151Z,4.70
2023-02-13T13:03:06.013Z,4.70
2023-02-13T13:06:48.383Z,4.80
2023-02-13T13:10:49.723Z,3.70
2023-02-13T13:14:26.252Z,3.60
2023-02-13T13:18:09.619Z,3.90
2023-02-13T13:21:47.004Z,3.70
2023-02-13T13:25:26.661Z,3.80
2023-02-13T13:28:58.303Z,3.00
2023-02-13T13:32:26.375Z,4.30
2023-02-13T13:36:02.152Z,3.90
2023-02-13T13:39:41.727Z,4.20
2023-02-13T13:43:19.839Z,3.40
2023-02-13T13:46:59.209Z,4.50
2023-02-13T13:50:29.528Z,4.50
2023-02-13T13:54:37.145Z,3.80
2023-02-13T13:58:04.062Z,3.90
2023-02-13T14:01:32.866Z,3.10
2023-02-13T14:05:19.859Z,2.90
2023-02-13T14:09:40.619Z,2.20
2023-02-13T14:13:09.084Z,2.40
2023-02-13T14:16:44.196Z,3.00
2023-02-13T14:20:35.912Z,2.80
2023-02-13T14:24:04.544Z,2.50
2023-02-13T14:27:34.746Z,2.60
2023-02-13T14:31:15.234Z,4.10
2023-02-13T14:34:43.824Z,3.40
2023-02-13T14:38:25.454Z,2.80
2023-02-13T14:42:03.618Z,2.90
2023-02-13T14:45:34.654Z,3.30
2023-02-13T14:49:05.745Z,3.20
2023-02-13T14:52:37.067Z,4.40
2023-02-13T14:56:10.472Z,3.50
2023-02-13T14:59:43.602Z,3.00
2023-02-13T15:03:28.709Z,4.60
2023-02-13T15:06:59.577Z,3.70
2023-02-13T15:10:42.024Z,4.10
2023-02-13T15:14:31.725Z,3.40
2023-02-13T15:18:04.075Z,3.40
2023-02-13T15:21:36.355Z,3.30
2023-02-13T15:25:03.657Z,3.70
2023-02-13T15:28:31.881Z,4.20
2023-02-13T15:32:00.383Z,3.90
2023-02-13T15:35:36.185Z,3.90
2023-02-13T15:39:10.461Z,4.10
2023-02-13T15:42:41.775Z,3.60
2023-02-13T15:46:21.128Z,3.70
2023-02-13T15:49:53.947Z,3.80
2023-02-13T15:53:23.715Z,4.10
2023-02-13T15:56:52.548Z,3.80
2023-02-13T16:00:27.120Z,4.10
2023-02-13T16:04:04.061Z,3.70
2023-02-13T16:07:48.905Z,3.50
2023-02-13T16:11:31.787Z,4.00
2023-02-13T16:15:02.713Z,5.20
2023-02-13T16:18:35.321Z,5.30
2023-02-13T16:22:27.874Z,4.30
2023-02-13T16:29:23.764Z,6.20
2023-02-13T16:32:51.794Z,6.60
2023-02-13T16:36:31.008Z,6.00
2023-02-13T16:40:28.902Z,7.90
2023-02-13T16:43:59.030Z,5.80
2023-02-13T16:47:30.574Z,5.10
2023-02-13T16:51:00.811Z,4.60
2023-02-13T16:54:43.034Z,4.50
2023-02-13T16:58:27.663Z,3.90
2023-02-13T17:02:19.288Z,5.10
2023-02-13T17:05:47.738Z,5.10
2023-02-13T17:09:14.724Z,7.30
2023-02-13T17:12:41.746Z,5.50
2023-02-13T17:16:16.806Z,5.90
2023-02-13T17:19:51.337Z,5.90
2023-02-13T17:23:22.811Z,6.70
2023-02-13T17:26:52.256Z,6.30
2023-02-13T17:30:22.664Z,6.30
2023-02-13T17:33:49.718Z,6.80
2023-02-13T17:37:27.078Z,6.00
2023-02-13T17:40:54.480Z,6.10
2023-02-13T17:44:22.498Z,5.30
2023-02-13T17:47:49.514Z,5.40
2023-02-13T17:51:17.680Z,6.90
2023-02-13T17:54:44.632Z,6.90
2023-02-13T17:58:14.772Z,8.90
2023-02-13T18:01:41.479Z,9.40
2023-02-13T18:05:10.639Z,9.50
2023-02-13T18:08:38.641Z,8.50
2023-02-13T18:12:07.094Z,8.00
2023-02-13T18:15:35.803Z,8.70
2023-02-13T18:19:03.070Z,6.40
2023-02-13T18:22:30.334Z,7.80
2023-02-13T18:26:07.632Z,10.90
2023-02-13T18:29:36.505Z,12.00
2023-02-13T18:33:08.921Z,11.40
2023-02-13T18:36:38.113Z,12.10
2023-02-13T18:40:04.857Z,10.80
2023-02-13T18:43:35.162Z,9.30
2023-02-13T18:47:03.241Z,9.40
2023-02-13T18:50:34.501Z,5.70
2023-02-13T18:54:03.510Z,5.00
2023-02-13T18:57:37.035Z,5.30
2023-02-13T19:01:11.428Z,4.70
2023-02-13T19:04:45.459Z,5.20
2023-02-13T19:08:16.305Z,4.70
2023-02-13T19:11:44.623Z,5.00
2023-02-13T19:15:16.036Z,4.30
2023-02-13T19:18:45.406Z,5.40
2023-02-13T19:22:14.611Z,6.10
2023-02-13T19:25:46.028Z,7.20
2023-02-13T19:29:13.085Z,7.80
2023-02-13T19:32:46.276Z,14.60
2023-02-13T19:36:18.602Z,20.10
2023-02-13T19:39:51.082Z,14.90
2023-02-13T19:43:20.364Z,18.40
2023-02-13T19:46:54.754Z,20.50
2023-02-13T19:50:26.631Z,15.50
2023-02-13T19:54:15.438Z,12.30
2023-02-13T19:57:46.955Z,13.40
2023-02-13T20:01:20.986Z,12.40
2023-02-13T20:04:52.828Z,12.90
2023-02-13T20:08:23.799Z,10.70
2023-02-13T20:11:56.157Z,8.70
2023-02-13T20:15:28.041Z,8.90
2023-02-13T20:19:10.058Z,9.60
2023-02-13T20:22:47.867Z,10.20
2023-02-13T20:26:24.522Z,11.00
2023-02-13T20:30:03.382Z,13.40
2023-02-13T20:33:41.397Z,11.60
2023-02-13T20:37:19.682Z,11.50
2023-02-13T20:40:50.182Z,12.60
2023-02-13T20:44:24.327Z,13.40
2023-02-13T20:47:58.765Z,14.50
2023-02-13T20:51:27.688Z,13.30
2023-02-13T20:55:03.087Z,11.80
2023-02-13T20:58:34.389Z,10.90
2023-02-13T21:02:07.992Z,11.60
2023-02-13T21:05:36.964Z,11.40
2023-02-13T21:09:11.589Z,10.10
2023-02-13T21:12:40.674Z,8.30
2023-02-13T21:16:14.349Z,7.50
2023-02-13T21:19:42.338Z,7.90
2023-02-13T21:23:12.094Z,9.50
2023-02-13T21:26:43.099Z,9.50
2023-02-13T21:30:22.713Z,11.70
2023-02-13T21:33:55.793Z,10.70
2023-02-13T21:37:30.674Z,10.80
2023-02-13T21:41:05.593Z,10.50
2023-02-13T21:44:45.779Z,10.00
2023-02-13T21:48:17.870Z,9.20
2023-02-13T21:51:54.770Z,9.00
2023-02-13T21:55:32.766Z,9.90
2023-02-13T21:59:10.392Z,9.70
2023-02-13T22:06:25.085Z,10.50
2023-02-13T22:09:57.270Z,11.00
2023-02-13T22:13:27.262Z,10.50
2023-02-13T22:16:55.129Z,9.90
2023-02-13T22:20:26.266Z,10.00
2023-02-13T22:23:53.474Z,11.10
2023-02-13T22:27:20.648Z,10.50
2023-02-13T22:30:47.575Z,10.20
2023-02-13T22:34:16.267Z,9.50
2023-02-13T22:37:44.806Z,11.40
2023-02-13T22:41:15.077Z,10.90
2023-02-13T22:44:43.794Z,10.50
2023-02-13T22:48:10.966Z,9.40
2023-02-13T22:51:40.733Z,10.00
2023-02-13T22:55:09.934Z,9.70
2023-02-13T22:58:37.330Z,10.40
2023-02-13T23:02:09.149Z,10.60
2023-02-13T23:05:39.365Z,13.40
2023-02-13T23:09:08.465Z,14.30
2023-02-13T23:12:45.927Z,12.80
2023-02-13T23:16:17.973Z,11.30
2023-02-13T23:19:46.506Z,10.30
2023-02-13T23:23:17.381Z,10.10
2023-02-13T23:26:45.380Z,10.60
2023-02-13T23:30:18.337Z,9.60
2023-02-13T23:33:47.549Z,8.70
2023-02-13T23:37:15.366Z,10.40
2023-02-13T23:40:42.646Z,9.50
2023-02-13T23:44:09.796Z,8.90
2023-02-13T23:47:40.396Z,8.40
2023-02-13T23:51:08.843Z,8.20
2023-02-13T23:54:35.720Z,7.80
2023-02-13T23:58:03.982Z,8.80
